Time;durP1;ratioP1;P1;durP2;ratioP2;P2;SDS_P1;SDS_P2;PMS_P1;PMS_P2;Temp;Humidity;BMP_temperature;BMP_pressure;BME280_temperature;BME280_humidity;BME280_pressure;Samples;Min_cycle;Max_cycle;Signal;HPM_P1;HPM_P2
2022/04/16 00:00:49;;;;;;;16.60;12.93;;;;;;;9.24;78.39;102214.72;5077389;28;20231;-82
2022/04/16 00:03:16;;;;;;;16.27;13.17;;;;;;;9.15;78.76;102208.47;5076510;28;20213;-79
2022/04/16 00:05:42;;;;;;;21.23;13.23;;;;;;;9.12;78.87;102200.63;5077413;28;20254;-81
2022/04/16 00:08:09;;;;;;;15.83;13.23;;;;;;;9.09;79.02;102200.56;5077512;28;20197;-79
2022/04/16 00:10:36;;;;;;;16.80;13.97;;;;;;;9.08;78.82;102209.25;5077207;28;20291;-81
2022/04/16 00:13:04;;;;;;;13.97;12.57;;;;;;;9.05;79.02;102213.53;5077397;28;20200;-80
2022/04/16 00:15:31;;;;;;;15.07;11.60;;;;;;;9.02;78.00;102230.00;5077433;28;20230;-80
2022/04/16 00:17:58;;;;;;;14.77;12.20;;;;;;;8.99;78.06;102244.69;5077541;28;20224;-81
2022/04/16 00:20:25;;;;;;;14.23;12.33;;;;;;;8.92;77.91;102252.41;5076902;28;20225;-80
2022/04/16 00:22:51;;;;;;;16.40;11.17;;;;;;;8.91;77.08;102257.56;5077390;28;20622;-80
2022/04/16 00:25:19;;;;;;;14.53;11.83;;;;;;;8.87;77.86;102259.25;5077355;28;20330;-80
2022/04/16 00:27:46;;;;;;;13.93;12.10;;;;;;;8.85;77.44;102257.47;5077470;28;20695;-80
2022/04/16 00:30:15;;;;;;;13.13;11.83;;;;;;;8.84;77.14;102266.13;5077343;28;20228;-81
2022/04/16 00:32:41;;;;;;;13.40;12.00;;;;;;;8.77;77.53;102251.25;5077300;28;20248;-80
2022/04/16 00:35:09;;;;;;;15.53;11.33;;;;;;;8.79;77.08;102263.44;5076345;28;20211;-80
2022/04/16 00:37:36;;;;;;;11.97;10.60;;;;;;;8.74;76.89;102279.00;5076581;28;20210;-79
2022/04/16 00:40:03;;;;;;;11.97;10.03;;;;;;;8.72;76.45;102285.91;5076407;28;20582;-79
2022/04/16 00:42:32;;;;;;;11.80;9.90;;;;;;;8.69;76.97;102285.81;5069417;28;20656;-82
2022/04/16 00:44:59;;;;;;;11.13;9.60;;;;;;;8.73;75.87;102291.97;5076984;28;20293;-80
2022/04/16 00:47:26;;;;;;;9.77;8.77;;;;;;;8.71;75.21;102315.38;5076576;28;20208;-80
2022/04/16 00:49:53;;;;;;;10.03;9.03;;;;;;;8.68;75.14;102325.75;5077008;28;20235;-81
2022/04/16 00:52:20;;;;;;;9.60;8.63;;;;;;;8.59;75.25;102337.69;5076284;28;20230;-79
2022/04/16 00:54:47;;;;;;;10.73;7.97;;;;;;;8.56;74.63;102351.50;5076930;28;20248;-81
2022/04/16 00:57:14;;;;;;;8.23;7.43;;;;;;;8.57;74.66;102366.28;5076849;28;20276;-80
2022/04/16 00:59:40;;;;;;;9.00;8.10;;;;;;;8.50;74.80;102357.50;5077221;28;20273;-81
2022/04/16 01:02:09;;;;;;;9.47;8.57;;;;;;;8.53;74.99;102349.72;5076452;28;20205;-79
2022/04/16 01:04:37;;;;;;;8.73;7.83;;;;;;;8.48;75.06;102340.06;5076917;28;20217;-80
2022/04/16 01:07:06;;;;;;;8.07;7.27;;;;;;;8.47;75.41;102338.34;5077142;28;20200;-81
2022/04/16 01:09:33;;;;;;;8.33;7.53;;;;;;;8.47;75.26;102340.94;5076352;28;20206;-80
2022/04/16 01:12:00;;;;;;;9.37;8.37;;;;;;;8.41;75.92;102338.16;5067979;28;20235;-80
2022/04/16 01:14:26;;;;;;;8.30;7.50;;;;;;;8.43;75.49;102341.72;5075721;28;20196;-81
2022/04/16 01:16:55;;;;;;;10.33;8.13;;;;;;;8.46;75.21;102352.16;5076817;28;20278;-81
2022/04/16 01:19:22;;;;;;;8.50;7.70;;;;;;;8.39;74.75;102352.88;5078216;28;20252;-80
2022/04/16 01:21:50;;;;;;;8.03;7.23;;;;;;;8.30;76.15;102337.94;5076998;28;20229;-79
2022/04/16 01:24:18;;;;;;;8.43;7.53;;;;;;;8.23;76.40;102331.72;5076304;28;20257;-79
2022/04/16 01:26:44;;;;;;;8.10;7.33;;;;;;;8.28;76.02;102339.63;5076335;28;20207;-79
2022/04/16 01:29:11;;;;;;;8.63;7.77;;;;;;;8.30;75.38;102354.41;5076588;28;20272;-80
2022/04/16 01:31:38;;;;;;;8.83;7.53;;;;;;;8.23;75.95;102344.75;5076656;28;20233;-81
2022/04/16 01:34:04;;;;;;;9.17;8.23;;;;;;;8.24;76.05;102348.22;5075904;28;20201;-79
2022/04/16 01:36:31;;;;;;;8.33;7.50;;;;;;;8.19;75.21;102363.72;5076019;28;20209;-81
2022/04/16 01:38:58;;;;;;;8.50;7.60;;;;;;;8.19;75.79;102360.25;5076217;28;20324;-80
2022/04/16 01:41:26;;;;;;;6.93;6.30;;;;;;;8.21;74.98;102376.78;5067745;28;20222;-80
2022/04/16 01:43:54;;;;;;;6.10;5.50;;;;;;;8.13;74.85;102407.81;5075500;28;20267;-81
2022/04/16 01:46:21;;;;;;;5.93;5.33;;;;;;;8.10;73.48;102416.41;5076390;28;20266;-80
2022/04/16 01:48:49;;;;;;;8.03;5.53;;;;;;;8.06;73.10;102434.53;5079661;28;20728;-80
2022/04/16 01:51:17;;;;;;;4.93;4.43;;;;;;;8.04;72.60;102441.41;5079846;28;20229;-79
2022/04/16 01:53:44;;;;;;;5.47;4.97;;;;;;;8.02;72.52;102443.09;5079991;28;20191;-80
2022/04/16 01:56:10;;;;;;;5.20;4.77;;;;;;;7.85;73.25;102456.56;5079332;28;20206;-81
2022/04/16 01:58:39;;;;;;;4.90;4.50;;;;;;;7.91;72.35;102461.91;5079728;28;20227;-79
2022/04/16 02:01:05;;;;;;;5.73;5.13;;;;;;;7.91;73.40;102461.06;5079631;28;20235;-79
2022/04/16 02:03:33;;;;;;;5.50;5.00;;;;;;;7.85;73.14;102466.97;5079636;28;20294;-81
2022/04/16 02:05:59;;;;;;;5.90;5.30;;;;;;;7.89;72.66;102471.41;5079400;28;20204;-80
2022/04/16 02:08:26;;;;;;;5.00;4.60;;;;;;;7.86;72.95;102470.44;5079489;28;20201;-79
2022/04/16 02:10:52;;;;;;;5.83;5.13;;;;;;;7.83;72.56;102468.66;5078925;28;20224;-81
2022/04/16 02:13:19;;;;;;;5.83;5.10;;;;;;;7.82;73.01;102473.81;5062264;28;20746;-81
2022/04/16 02:15:47;;;;;;;5.23;4.83;;;;;;;7.78;72.55;102465.03;5059065;28;20205;-80
2022/04/16 02:18:13;;;;;;;5.70;5.10;;;;;;;7.75;72.91;102473.66;5059236;28;20634;-81
2022/04/16 02:20:41;;;;;;;4.63;4.23;;;;;;;7.73;72.43;102480.53;5059136;28;20297;-81
2022/04/16 02:23:09;;;;;;;5.43;4.93;;;;;;;7.73;71.88;102483.13;5059000;28;20221;-80
2022/04/16 02:25:36;;;;;;;4.87;4.37;;;;;;;7.66;71.97;102493.31;5058304;28;20256;-81
2022/04/16 02:28:02;;;;;;;4.43;4.03;;;;;;;7.62;72.04;102501.88;5058400;28;20682;-80
2022/04/16 02:30:30;;;;;;;4.47;4.07;;;;;;;7.59;72.06;102504.38;5058319;28;20652;-79
2022/04/16 02:32:58;;;;;;;5.73;3.97;;;;;;;7.54;72.31;102510.34;5058786;28;20201;-81
2022/04/16 02:35:25;;;;;;;4.37;3.97;;;;;;;7.52;71.26;102503.34;5058827;28;20232;-80
2022/04/16 02:37:51;;;;;;;3.83;3.47;;;;;;;7.45;72.17;102515.31;5061059;28;20239;-80
2022/04/16 02:40:18;;;;;;;4.27;3.63;;;;;;;7.43;71.62;102516.97;5071592;28;20290;-81
2022/04/16 02:42:46;;;;;;;5.17;4.00;;;;;;;7.39;71.15;102524.63;5085737;28;20558;-79
2022/04/16 02:48:00;;;;;;;3.30;3.10;;;;;;;7.28;71.72;102526.94;5081904;28;20201;-81
2022/04/16 02:50:27;;;;;;;3.80;3.50;;;;;;;7.22;72.28;102530.25;5078944;28;20228;-81
2022/04/16 02:52:54;;;;;;;3.67;3.03;;;;;;;7.13;71.34;102530.84;5078374;28;20235;-80
2022/04/16 02:55:21;;;;;;;3.60;3.27;;;;;;;7.12;71.41;102536.88;5078403;28;20266;-79
2022/04/16 02:57:49;;;;;;;3.80;3.50;;;;;;;7.02;71.23;102555.63;5078703;28;20209;-80
2022/04/16 03:00:16;;;;;;;3.47;2.90;;;;;;;6.95;70.59;102566.66;5077926;28;20761;-79
2022/04/16 03:02:42;;;;;;;2.93;2.73;;;;;;;6.92;70.24;102570.06;5078590;28;20210;-80
2022/04/16 03:05:11;;;;;;;2.83;2.63;;;;;;;6.79;70.40;102590.41;5078563;28;20212;-81
2022/04/16 03:07:38;;;;;;;3.10;2.17;;;;;;;6.72;69.94;102594.53;5078760;28;20307;-81
2022/04/16 03:10:05;;;;;;;2.80;2.37;;;;;;;6.65;69.72;102606.41;5078665;28;20224;-80
2022/04/16 03:12:41;;;;;;;3.47;2.20;;;;;;;6.51;70.18;102598.16;5070628;28;20205;-79
2022/04/16 03:17:54;;;;;;;2.67;2.43;;;;;;;6.41;69.87;102610.81;5078452;28;20239;-81
2022/04/16 03:20:22;;;;;;;2.10;1.93;;;;;;;6.37;70.61;102612.41;5078270;28;20228;-79
2022/04/16 03:22:49;;;;;;;2.43;2.23;;;;;;;6.32;70.33;102620.03;5078149;28;20204;-81
2022/04/16 03:25:15;;;;;;;1.93;1.83;;;;;;;6.29;69.90;102619.94;5078082;28;20234;-79
2022/04/16 03:27:42;;;;;;;2.20;2.00;;;;;;;6.20;70.64;102619.59;5078224;28;20201;-80
2022/04/16 03:30:10;;;;;;;2.50;2.30;;;;;;;6.16;70.33;102623.81;5077952;28;20229;-79
2022/04/16 03:32:39;;;;;;;2.10;1.90;;;;;;;6.12;70.51;102623.66;5078494;28;20711;-80
2022/04/16 03:35:07;;;;;;;2.43;2.33;;;;;;;6.08;70.08;102619.19;5078934;28;20229;-80
2022/04/16 03:37:35;;;;;;;2.20;1.90;;;;;;;5.97;70.20;102627.47;5078640;28;20205;-81
2022/04/16 03:40:02;;;;;;;1.93;1.77;;;;;;;5.88;69.86;102629.69;5078167;28;20228;-81
2022/04/16 03:42:28;;;;;;;2.00;1.90;;;;;;;5.85;70.47;102629.59;5064651;28;20667;-80
2022/04/16 03:44:56;;;;;;;2.00;1.90;;;;;;;5.75;70.44;102625.78;5078538;28;20254;-81
2022/04/16 03:47:22;;;;;;;2.00;1.73;;;;;;;5.70;70.41;102626.44;5078504;28;20217;-79
2022/04/16 03:49:49;;;;;;;2.10;1.70;;;;;;;5.65;70.91;102615.03;5077456;28;20266;-81
2022/04/16 03:52:15;;;;;;;3.83;2.33;;;;;;;5.58;71.04;102622.56;5078096;28;20224;-80
2022/04/16 04:00:12;;;;;;;2.03;1.83;;;;;;;5.40;71.24;102606.38;5077272;28;20235;-79
2022/04/16 04:02:39;;;;;;;1.67;1.50;;;;;;;5.35;71.80;102597.53;5077149;28;20208;-81
2022/04/16 04:05:07;;;;;;;2.17;1.97;;;;;;;5.35;71.64;102607.88;5077375;28;20201;-79
2022/04/16 04:07:33;;;;;;;2.60;2.20;;;;;;;5.30;71.70;102604.25;5076651;28;20209;-80
2022/04/16 04:10:01;;;;;;;3.20;2.30;;;;;;;5.24;71.38;102614.38;5078080;28;20221;-82
2022/04/16 04:12:28;;;;;;;2.00;1.80;;;;;;;5.14;71.88;102608.84;5069937;28;20201;-81
2022/04/16 04:14:54;;;;;;;2.43;2.10;;;;;;;5.15;72.52;102600.28;5078055;28;20236;-81
2022/04/16 04:17:21;;;;;;;2.17;1.80;;;;;;;5.15;72.40;102605.44;5078259;28;20270;-83
2022/04/16 04:19:47;;;;;;;2.53;2.33;;;;;;;5.11;72.08;102606.16;5089022;28;20232;-82
2022/04/16 04:22:16;;;;;;;3.43;2.23;;;;;;;5.10;72.29;102598.31;5077982;28;20562;-80
2022/04/16 04:24:43;;;;;;;1.80;1.70;;;;;;;5.07;72.22;102609.41;5078266;28;20207;-79
2022/04/16 04:27:11;;;;;;;2.50;2.30;;;;;;;4.94;72.61;102596.84;5079692;28;20204;-80
2022/04/16 04:29:38;;;;;;;4.30;2.07;;;;;;;4.97;73.04;102590.09;5086864;28;20204;-75
2022/04/16 04:32:06;;;;;;;3.17;2.20;;;;;;;4.95;72.88;102586.53;5081832;28;20247;-80
2022/04/16 04:34:32;;;;;;;2.40;2.20;;;;;;;4.91;73.02;102594.13;5085580;28;20209;-80
2022/04/16 04:36:59;;;;;;;3.47;2.40;;;;;;;4.90;73.45;102597.56;5085032;28;20208;-80
2022/04/16 04:39:25;;;;;;;2.10;2.00;;;;;;;4.86;73.00;102596.53;5082862;28;20756;-80
2022/04/16 04:41:52;;;;;;;1.97;1.73;;;;;;;4.81;73.53;102582.53;5075503;28;20255;-81
2022/04/16 04:44:20;;;;;;;2.47;2.13;;;;;;;4.81;73.21;102587.72;5075252;28;20204;-80
2022/04/16 04:46:46;;;;;;;2.80;2.60;;;;;;;4.73;73.76;102582.22;5079605;28;20208;-80
2022/04/16 04:49:12;;;;;;;2.70;2.50;;;;;;;4.69;74.48;102570.00;5077136;28;20197;-81
2022/04/16 04:51:39;;;;;;;2.43;2.23;;;;;;;4.72;74.72;102570.13;5075968;28;20243;-80
2022/04/16 04:54:06;;;;;;;2.83;2.43;;;;;;;4.73;74.11;102573.59;5075833;28;20201;-79
2022/04/16 04:56:33;;;;;;;3.50;2.40;;;;;;;4.72;74.38;102577.88;5075736;28;20209;-79
2022/04/16 04:58:59;;;;;;;2.23;2.00;;;;;;;4.76;74.38;102572.00;5075922;28;20225;-80
2022/04/16 05:01:27;;;;;;;2.20;2.00;;;;;;;4.78;73.80;102583.31;5075803;28;20274;-79
2022/04/16 05:03:54;;;;;;;2.47;2.27;;;;;;;4.78;73.85;102583.31;5075862;28;20204;-81
2022/04/16 05:06:20;;;;;;;2.60;2.00;;;;;;;4.78;73.98;102588.47;5076136;28;20205;-79
2022/04/16 05:08:47;;;;;;;4.33;2.23;;;;;;;4.80;73.91;102590.22;5075827;28;20208;-80
2022/04/16 05:11:14;;;;;;;2.40;2.20;;;;;;;4.83;73.93;102591.22;5075450;28;20236;-78
2022/04/16 05:13:40;;;;;;;3.13;2.17;;;;;;;4.85;74.08;102592.19;5066973;28;20234;-80
2022/04/16 05:16:08;;;;;;;3.13;2.27;;;;;;;4.85;74.20;102587.00;5075176;28;20262;-80
2022/04/16 05:18:36;;;;;;;2.47;2.27;;;;;;;4.86;74.37;102588.78;5075639;28;20211;-79
2022/04/16 05:21:02;;;;;;;2.67;2.00;;;;;;;4.87;74.03;102607.78;5075816;28;20228;-79
2022/04/16 05:23:29;;;;;;;4.50;2.33;;;;;;;4.84;73.99;102607.66;5079189;28;20265;-81
2022/04/16 05:25:55;;;;;;;3.87;1.87;;;;;;;4.87;73.91;102618.13;5078494;28;20235;-82
2022/04/16 05:28:22;;;;;;;2.47;2.27;;;;;;;4.88;73.96;102631.13;5079276;28;20205;-80
2022/04/16 05:30:54;;;;;;;2.40;2.20;;;;;;;4.88;74.02;102630.25;5079461;28;20717;-80
2022/04/16 05:36:03;;;;;;;2.17;2.07;;;;;;;4.85;74.42;102635.28;5078825;28;20205;-81
2022/04/16 05:38:30;;;;;;;2.50;2.30;;;;;;;4.89;74.41;102634.59;5080055;28;20204;-79
2022/04/16 05:40:56;;;;;;;2.40;2.20;;;;;;;4.87;74.88;102638.81;5079210;28;20228;-79
2022/04/16 05:43:23;;;;;;;2.70;2.50;;;;;;;4.89;74.52;102643.22;5069539;28;20197;-79
2022/04/16 05:45:49;;;;;;;2.90;2.57;;;;;;;4.93;74.19;102646.81;5078530;28;20205;-78
2022/04/16 05:48:16;;;;;;;3.20;2.70;;;;;;;4.92;74.94;102652.84;5079492;28;20209;-79
2022/04/16 05:50:43;;;;;;;3.03;2.57;;;;;;;4.89;75.72;102643.22;5078867;28;20284;-81
2022/04/16 05:53:13;;;;;;;2.43;2.23;;;;;;;4.98;75.11;102647.91;5079099;28;20220;-80
2022/04/16 05:55:41;;;;;;;2.80;2.33;;;;;;;5.01;74.79;102663.53;5078222;28;20247;-80
2022/04/16 05:58:08;;;;;;;2.73;2.40;;;;;;;5.08;73.94;102672.44;5079021;28;20201;-79
2022/04/16 06:00:37;;;;;;;3.43;2.50;;;;;;;5.12;74.32;102674.34;5077872;28;20232;-80
2022/04/16 06:03:04;;;;;;;3.00;2.50;;;;;;;5.11;74.57;102665.69;5078373;28;20200;-81
2022/04/16 06:05:32;;;;;;;2.70;2.50;;;;;;;5.15;73.92;102677.94;5078972;28;20616;-78
2022/04/16 06:07:58;;;;;;;3.13;2.10;;;;;;;5.18;74.39;102682.34;5079613;28;20207;-79
2022/04/16 06:10:26;;;;;;;2.50;2.30;;;;;;;5.21;73.66;102682.44;5079454;28;20233;-79
2022/04/16 06:12:53;;;;;;;2.33;2.17;;;;;;;5.25;73.65;102697.31;5072728;28;20202;-80
2022/04/16 06:15:20;;;;;;;2.60;2.23;;;;;;;5.26;74.09;102688.69;5070246;28;20613;-79
2022/04/16 06:17:46;;;;;;;4.67;2.53;;;;;;;5.32;74.11;102685.47;5076719;28;20201;-79
2022/04/16 06:20:13;;;;;;;3.97;2.10;;;;;;;5.25;73.70;102693.81;5070439;28;20225;-79
2022/04/16 06:22:40;;;;;;;2.40;2.10;;;;;;;5.22;74.00;102689.41;5070454;28;20206;-80
2022/04/16 06:25:08;;;;;;;3.60;2.20;;;;;;;5.24;74.28;102677.41;5067437;28;20197;-79
2022/04/16 06:27:38;;;;;;;2.73;2.43;;;;;;;5.25;74.47;102676.59;5073258;28;20220;-78
2022/04/16 06:30:06;;;;;;;2.43;2.23;;;;;;;5.31;74.48;102662.97;5064738;28;20255;-80
2022/04/16 06:32:34;;;;;;;2.73;1.93;;;;;;;5.38;73.64;102675.34;5076632;28;20201;-79
2022/04/16 06:35:01;;;;;;;4.27;2.20;;;;;;;5.30;73.43;102692.28;5077534;28;20254;-79
2022/04/16 06:37:27;;;;;;;2.50;2.10;;;;;;;5.31;73.96;102681.09;5073212;28;20231;-78
2022/04/16 06:39:54;;;;;;;3.20;2.47;;;;;;;5.41;73.46;102679.75;5065878;28;20224;-78
2022/04/16 06:42:20;;;;;;;2.17;1.90;;;;;;;5.46;72.65;102709.31;5069740;28;20201;-79
2022/04/16 06:44:48;;;;;;;2.83;2.40;;;;;;;5.43;73.48;102699.72;5070358;28;20205;-78
2022/04/16 06:47:15;;;;;;;2.37;2.17;;;;;;;5.49;73.31;102683.50;5068913;28;20247;-78
2022/04/16 06:49:41;;;;;;;2.40;2.07;;;;;;;5.53;73.04;102696.66;5064266;28;20243;-78
2022/04/16 06:52:08;;;;;;;3.03;2.17;;;;;;;5.55;72.35;102710.56;5062301;28;20817;-77
2022/04/16 06:54:34;;;;;;;6.83;3.13;;;;;;;5.53;72.04;102721.66;5062776;28;20280;-79
2022/04/16 06:57:01;;;;;;;2.67;2.47;;;;;;;5.49;73.14;102704.22;5063910;28;20247;-79
2022/04/16 06:59:27;;;;;;;4.10;2.70;;;;;;;5.53;72.99;102687.97;5063743;28;20630;-78
2022/04/16 07:01:55;;;;;;;3.03;2.60;;;;;;;5.58;72.77;102689.94;5065653;28;20247;-78
2022/04/16 07:04:21;;;;;;;5.03;2.70;;;;;;;5.65;72.72;102695.34;5065333;28;20200;-78
2022/04/16 07:06:48;;;;;;;2.80;2.57;;;;;;;5.69;72.52;102700.72;5065469;28;20247;-78
2022/04/16 07:09:14;;;;;;;6.60;3.07;;;;;;;5.77;71.80;102708.78;5066413;28;20197;-78
2022/04/16 07:11:41;;;;;;;3.73;3.40;;;;;;;5.82;71.82;102716.72;5067573;28;20220;-77
2022/04/16 07:14:07;;;;;;;4.20;3.07;;;;;;;5.86;71.41;102723.78;5071558;28;20266;-78
2022/04/16 07:16:33;;;;;;;4.93;3.50;;;;;;;5.88;70.97;102743.75;5062659;28;20687;-79
2022/04/16 07:19:01;;;;;;;4.43;4.00;;;;;;;5.90;71.60;102729.13;5061560;28;20202;-78
2022/04/16 07:21:27;;;;;;;6.00;5.43;;;;;;;5.91;70.76;102733.50;5066260;28;20767;-79
2022/04/16 07:23:54;;;;;;;5.10;4.10;;;;;;;5.93;70.32;102742.22;5063347;28;20200;-79
2022/04/16 07:26:20;;;;;;;4.20;3.90;;;;;;;5.99;71.15;102732.94;5065107;28;20197;-79
2022/04/16 07:28:47;;;;;;;5.07;4.40;;;;;;;6.05;71.40;102743.53;5065748;28;20254;-78
2022/04/16 07:31:13;;;;;;;4.40;4.00;;;;;;;6.10;70.39;102749.75;5065621;28;20733;-79
2022/04/16 07:33:40;;;;;;;4.73;4.33;;;;;;;6.09;70.04;102792.09;5068705;28;20205;-79
2022/04/16 07:36:07;;;;;;;4.53;4.13;;;;;;;6.09;70.45;102777.41;5068694;28;20251;-78
2022/04/16 07:38:34;;;;;;;3.80;3.50;;;;;;;6.16;70.21;102773.31;5066399;28;20203;-79
2022/04/16 07:41:02;;;;;;;4.37;3.97;;;;;;;6.22;69.97;102783.03;5068972;28;20221;-78
2022/04/16 07:43:29;;;;;;;4.80;4.40;;;;;;;6.22;68.73;102821.94;5072570;28;20246;-79
2022/04/16 07:45:55;;;;;;;4.60;4.20;;;;;;;6.27;68.45;102836.84;5056553;28;20259;-81
2022/04/16 07:48:22;;;;;;;4.30;3.90;;;;;;;6.32;68.45;102843.13;5068369;28;20726;-81
2022/04/16 07:50:48;;;;;;;3.53;3.23;;;;;;;6.39;68.23;102845.94;5073533;28;20225;-79
2022/04/16 07:53:16;;;;;;;3.53;3.30;;;;;;;6.41;68.16;102862.44;5067922;28;20296;-78
2022/04/16 07:55:42;;;;;;;4.30;4.00;;;;;;;6.39;67.13;102853.72;5059753;28;20197;-79
2022/04/16 07:58:09;;;;;;;4.17;3.83;;;;;;;6.43;67.83;102869.44;5070834;28;20197;-78
2022/04/16 08:00:35;;;;;;;4.00;3.60;;;;;;;6.51;67.72;102872.31;5070026;28;20218;-78
2022/04/16 08:03:02;;;;;;;4.70;3.57;;;;;;;6.56;66.77;102876.84;5071099;28;20198;-78
2022/04/16 08:05:28;;;;;;;3.50;3.27;;;;;;;6.59;66.94;102889.06;5063616;28;20201;-78
2022/04/16 08:07:55;;;;;;;6.00;4.10;;;;;;;6.65;71.35;102814.00;5068079;28;20203;-78
2022/04/16 08:10:22;;;;;;;4.07;3.60;;;;;;;6.70;67.53;102851.41;5067254;28;20223;-80
2022/04/16 08:12:49;;;;;;;4.43;4.03;;;;;;;6.75;66.93;102882.72;5063779;28;20207;-78
2022/04/16 08:15:15;;;;;;;4.07;3.70;;;;;;;6.82;66.51;102915.88;5066204;28;20191;-79
2022/04/16 08:17:42;;;;;;;4.77;3.73;;;;;;;6.93;69.87;102891.16;5062273;28;20555;-79
2022/04/16 08:20:10;;;;;;;3.70;3.40;;;;;;;6.94;66.43;102895.53;5065082;28;20230;-79
2022/04/16 08:22:38;;;;;;;4.17;3.83;;;;;;;6.92;66.08;102925.75;5067722;28;20226;-80
2022/04/16 08:27:52;;;;;;;4.07;3.67;;;;;;;6.99;65.31;102959.72;5067491;28;20248;-78
2022/04/16 08:30:19;;;;;;;3.40;3.20;;;;;;;7.01;64.02;103005.69;5066903;28;20216;-79
2022/04/16 08:32:46;;;;;;;4.33;3.60;;;;;;;7.00;64.20;103011.72;5066645;28;20252;-79
2022/04/16 08:35:14;;;;;;;3.57;3.27;;;;;;;7.03;64.68;103005.75;5064998;28;20227;-79
2022/04/16 08:37:41;;;;;;;3.60;3.30;;;;;;;7.10;63.59;103005.16;5063172;28;20267;-79
2022/04/16 08:40:10;;;;;;;3.90;3.60;;;;;;;7.13;64.39;103011.31;5068253;28;20230;-78
2022/04/16 08:42:38;;;;;;;3.43;3.23;;;;;;;7.17;64.64;102988.94;5067028;28;20209;-79
2022/04/16 08:45:09;;;;;;;2.73;2.53;;;;;;;7.26;64.00;103004.88;5063467;28;20666;-78
2022/04/16 08:47:36;;;;;;;2.97;2.77;;;;;;;7.25;65.75;102981.44;5073604;28;20642;-79
2022/04/16 08:50:05;;;;;;;2.67;2.47;;;;;;;7.36;64.59;102993.09;5073767;28;20224;-78
2022/04/16 08:52:34;;;;;;;2.70;2.50;;;;;;;7.35;63.56;103017.31;5074278;28;20213;-78
2022/04/16 08:55:01;;;;;;;2.00;1.90;;;;;;;7.35;64.12;103025.09;5074136;28;20275;-77
2022/04/16 08:57:27;;;;;;;2.07;1.97;;;;;;;7.40;63.58;103031.38;5073828;28;20200;-78
2022/04/16 08:59:57;;;;;;;2.23;2.03;;;;;;;7.42;62.72;103057.41;5075106;28;20221;-78
2022/04/16 09:02:27;;;;;;;2.47;2.27;;;;;;;7.36;63.67;103055.47;5074968;28;20200;-78
2022/04/16 09:05:03;;;;;;;2.23;1.87;;;;;;;7.51;63.51;103049.94;5075675;28;20204;-78
2022/04/16 09:07:29;;;;;;;2.27;2.07;;;;;;;7.63;63.24;103045.19;5074988;28;20189;-78
2022/04/16 09:10:06;;;;;;;2.67;2.47;;;;;;;7.72;65.13;103029.88;5075330;28;20225;-78
2022/04/16 09:12:37;;;;;;;3.13;2.73;;;;;;;7.80;62.89;103029.28;5066973;28;20211;-79
2022/04/16 09:15:06;;;;;;;3.20;2.90;;;;;;;7.81;63.96;103063.16;5075111;28;20199;-79
2022/04/16 09:17:34;;;;;;;3.43;2.40;;;;;;;7.84;61.95;103054.56;5075225;28;20254;-79
2022/04/16 09:20:00;;;;;;;2.90;2.20;;;;;;;7.80;62.44;103069.16;5074569;28;20261;-78
2022/04/16 09:22:31;;;;;;;1.80;1.70;;;;;;;7.86;62.32;103081.50;5074644;28;20201;-78
2022/04/16 09:24:58;;;;;;;6.13;2.30;;;;;;;7.90;62.00;103096.38;5073302;28;20211;-78
2022/04/16 09:27:24;;;;;;;3.43;2.20;;;;;;;7.85;62.32;103108.31;5072750;28;20208;-77
2022/04/16 09:29:51;;;;;;;2.13;1.90;;;;;;;7.89;62.50;103099.81;5072605;28;20228;-78
2022/04/16 09:32:25;;;;;;;3.43;1.53;;;;;;;7.91;62.82;103079.97;5072887;28;20202;-77
2022/04/16 09:34:53;;;;;;;1.83;1.43;;;;;;;7.99;61.68;103081.09;5073006;28;20204;-79
2022/04/16 09:37:23;;;;;;;1.90;1.20;;;;;;;8.04;61.10;103110.72;5073714;28;20254;-79
2022/04/16 09:39:50;;;;;;;1.80;1.60;;;;;;;8.07;61.48;103134.28;5073801;28;20589;-77
2022/04/16 09:42:25;;;;;;;1.67;1.40;;;;;;;8.15;60.72;103121.53;5064556;28;20604;-76
2022/04/16 09:44:52;;;;;;;2.00;1.43;;;;;;;8.24;59.66;103146.97;5067267;28;20205;-78
2022/04/16 09:47:24;;;;;;;2.13;1.57;;;;;;;8.29;59.32;103171.44;5074285;28;20213;-78
2022/04/16 09:49:53;;;;;;;1.43;1.33;;;;;;;8.29;61.39;103146.28;5074591;28;20294;-78
2022/04/16 09:52:24;;;;;;;1.50;1.40;;;;;;;8.31;59.75;103161.97;5074141;28;20248;-79
2022/04/16 09:54:51;;;;;;;1.70;1.40;;;;;;;8.34;62.88;103104.81;5074580;28;20294;-79
2022/04/16 09:57:22;;;;;;;1.93;1.20;;;;;;;8.47;62.43;103048.88;5074555;28;20210;-79
2022/04/16 09:59:53;;;;;;;1.50;1.40;;;;;;;8.54;64.54;103048.22;5073902;28;20287;-79
2022/04/16 10:02:20;;;;;;;1.23;1.13;;;;;;;8.63;63.04;103076.28;5074358;28;20308;-79
2022/04/16 10:04:47;;;;;;;1.80;1.23;;;;;;;8.68;58.79;103171.03;5073884;28;20258;-78
2022/04/16 10:07:15;;;;;;;1.10;1.10;;;;;;;8.71;61.18;103173.75;5073659;28;20698;-77
2022/04/16 10:09:45;;;;;;;2.30;1.40;;;;;;;8.78;59.95;103180.03;5077306;28;20241;-78
2022/04/16 10:15:04;;;;;;;5.03;2.43;;;;;;;8.82;60.35;103195.84;5063000;28;20196;-78
2022/04/16 10:17:35;;;;;;;1.73;1.40;;;;;;;8.91;57.58;103236.91;5077420;28;20568;-78
2022/04/16 10:20:10;;;;;;;1.13;1.03;;;;;;;8.92;57.63;103230.88;5082492;28;20689;-78
2022/04/16 10:22:37;;;;;;;1.13;1.03;;;;;;;8.98;56.26;103290.09;5085397;28;20268;-78
2022/04/16 10:25:06;;;;;;;2.27;1.37;;;;;;;8.95;57.24;103289.16;5085744;28;20205;-78
2022/04/16 10:27:40;;;;;;;1.70;1.60;;;;;;;9.01;59.33;103225.06;5085846;28;20201;-79
2022/04/16 10:30:10;;;;;;;1.80;1.20;;;;;;;9.07;57.79;103236.56;5078701;28;20318;-79
2022/04/16 10:32:39;;;;;;;2.13;1.67;;;;;;;9.16;56.94;103280.31;5077555;28;20216;-79
2022/04/16 10:35:08;;;;;;;1.63;1.50;;;;;;;9.17;56.99;103278.56;5077376;28;20213;-77
2022/04/16 10:37:38;;;;;;;1.30;1.30;;;;;;;9.30;55.78;103307.69;5077236;28;20733;-78
2022/04/16 10:40:17;;;;;;;1.23;1.13;;;;;;;9.34;57.41;103277.41;5077686;28;20251;-78
2022/04/16 10:42:48;;;;;;;1.40;1.30;;;;;;;9.45;55.55;103295.97;5078647;28;20256;-78
2022/04/16 10:45:14;;;;;;;2.13;1.53;;;;;;;9.44;56.11;103326.41;5084082;28;20203;-78
2022/04/16 10:47:42;;;;;;;1.70;1.57;;;;;;;9.53;58.18;103260.59;5081599;28;20210;-79
2022/04/16 10:50:13;;;;;;;2.33;1.20;;;;;;;9.64;57.26;103225.31;5077788;28;20319;-79
2022/04/16 10:52:39;;;;;;;1.37;1.27;;;;;;;9.68;55.91;103292.38;5077308;28;20670;-78
2022/04/16 10:55:07;;;;;;;1.20;1.10;;;;;;;9.70;54.91;103292.44;5077213;28;20674;-79
2022/04/16 10:57:35;;;;;;;1.63;1.33;;;;;;;9.78;54.23;103355.28;5077818;28;20208;-78
2022/04/16 11:00:13;;;;;;;1.40;1.30;;;;;;;9.84;54.91;103339.81;5078081;28;20764;-78
2022/04/16 11:02:39;;;;;;;1.93;1.20;;;;;;;9.94;53.70;103392.31;5077264;28;20775;-79
2022/04/16 11:05:08;;;;;;;1.53;1.43;;;;;;;10.08;54.25;103364.03;5078255;28;20239;-80
2022/04/16 11:07:37;;;;;;;1.43;1.33;;;;;;;10.28;55.71;103327.19;5076454;28;20267;-76
2022/04/16 11:10:05;;;;;;;1.50;1.40;;;;;;;10.44;53.24;103381.66;5076301;28;20232;-79
2022/04/16 11:12:31;;;;;;;1.20;1.10;;;;;;;10.57;52.12;103431.66;5073409;28;20290;-79
2022/04/16 11:15:00;;;;;;;1.50;1.40;;;;;;;10.71;51.90;103478.22;5069890;28;20672;-78
2022/04/16 11:17:27;;;;;;;1.73;1.43;;;;;;;10.80;54.30;103438.44;5076417;28;20249;-78
2022/04/16 11:20:00;;;;;;;1.40;1.30;;;;;;;11.05;53.52;103395.56;5076167;28;20317;-78
2022/04/16 11:22:27;;;;;;;1.40;1.30;;;;;;;11.26;50.94;103444.94;5077111;28;20225;-79
2022/04/16 11:24:53;;;;;;;1.63;1.20;;;;;;;11.42;49.69;103535.16;5077010;28;20205;-79
2022/04/16 11:35:58;;;;;;;1.60;1.10;;;;;;;14.90;43.39;103763.19;5067269;28;20266;-77
2022/04/16 11:38:29;;;;;;;1.30;1.20;;;;;;;16.80;39.72;103911.56;5076157;28;20262;-79
2022/04/16 11:40:56;;;;;;;1.33;0.90;;;;;;;18.67;35.34;104033.75;5076445;28;20277;-78
2022/04/16 11:43:24;;;;;;;1.37;1.10;;;;;;;20.07;31.63;104110.13;5068628;28;20207;-78
2022/04/16 11:45:52;;;;;;;0.90;0.90;;;;;;;20.99;31.26;104129.44;5077186;28;20203;-79
2022/04/16 11:48:18;;;;;;;1.37;1.20;;;;;;;20.98;32.66;104076.31;5076551;28;20232;-79
2022/04/16 11:50:45;;;;;;;1.20;1.20;;;;;;;22.00;31.27;104064.13;5076628;28;20227;-79
2022/04/16 11:53:12;;;;;;;1.30;1.20;;;;;;;22.34;29.50;104062.97;5075819;28;20214;-79
2022/04/16 11:55:45;;;;;;;1.17;1.10;;;;;;;23.55;27.07;104077.38;5079591;28;20272;-81
2022/04/16 11:58:12;;;;;;;1.33;1.10;;;;;;;24.43;24.95;104107.91;5089664;28;20193;-82
2022/04/16 12:00:48;;;;;;;1.10;1.00;;;;;;;25.16;24.15;104145.66;5080059;28;20225;-79